Flight Track Log - Related Links

Times and Time Zones

All times are in EDT time to prevent confusion due to time zone crossing. See the EJA922 flight status page for this flight to view local times or setup timezone preferences in your user account.

Time Position Orientation Groundspeed Altitude Reporting Facility
EDT Latitude Longitude Course Direction KTS MPH feet Rate Location/Type
Mon 07:56:15 AM 41.1000 -73.7333 270° West 202 232 1,900  Level New York TRACON
Mon 07:57:15 AM 41.1000 -73.8167 270° West 214 246 5,000 2,900 Climbing New York TRACON
Mon 07:58:15 AM 41.0833 -73.9000 255° West 247 284 7,700 2,550 Climbing New York TRACON
Mon 07:59:15 AM 41.0500 -73.9833 242° Southwest 284 327 10,100 1,400 Climbing New York TRACON
Mon 08:00:15 AM 40.9833 -74.0833 229° Southwest 375 432 10,500 1,050 Climbing New York TRACON
Mon 08:01:15 AM 40.9167 -74.1833 229° Southwest 396 456 12,200 1,850 Climbing New York TRACON
Mon 08:02:15 AM 40.8333 -74.3000 227° Southwest 405 466 14,200 1,875 Climbing New York TRACON
Mon 08:02:51 AM 40.7917 -74.3892 238° Southwest 415 478 15,200 1,732 Climbing New York Center
Mon 08:03:52 AM 40.7283 -74.4844 229° Southwest 415 478 17,000 1,537 Climbing New York Center
Mon 08:04:52 AM 40.6622 -74.5928 231° Southwest 420 483 18,300 1,400 Climbing New York Center
Mon 08:05:52 AM 40.5811 -74.7194 230° Southwest 420 483 19,800 1,537 Climbing New York Center
Mon 08:06:53 AM 40.5061 -74.8408 231° Southwest 420 483 21,400 1,613 Climbing New York Center
Mon 08:07:51 AM 40.4289 -74.9644 231° Southwest 425 489 23,000 1,563 Climbing New York Center
Mon 08:08:52 AM 40.3475 -75.0792 227° Southwest 435 501 24,500 1,350 Climbing New York Center
Mon 08:09:51 AM 40.2617 -75.1989 227° Southwest 445 512 25,700 1,210 Climbing New York Center
Mon 08:10:51 AM 40.1758 -75.3186 227° Southwest 452 520 26,900 1,033 Climbing New York Center
Mon 08:11:53 AM 40.0878 -75.4431 227° Southwest 457 526 27,800 1,041 Climbing New York Center
Mon 08:12:52 AM 39.9972 -75.5697 227° Southwest 473 544 29,000 1,119 Climbing New York Center
Mon 08:13:51 AM 39.9064 -75.6989 228° Southwest 483 556 30,000 992 Climbing New York Center
Mon 08:14:53 AM 39.8261 -75.8228 230° Southwest 496 571 31,000 1,289 Climbing New York Center
Mon 08:15:52 AM 39.7408 -75.9600 231° Southwest 496 571 32,600 1,748 Climbing New York Center
Mon 08:17:24 AM 39.5975 -76.1814 230° Southwest 469 540 35,400 1,737 Climbing Washington Center
Mon 08:18:24 AM 39.5156 -76.3153 232° Southwest 475 547 37,000 1,339 Climbing Washington Center
Mon 08:19:25 AM 39.4231 -76.4511 229° Southwest 475 547 38,100 1,082 Climbing Washington Center
Mon 08:20:26 AM 39.3344 -76.5897 230° Southwest 475 547 39,200 966 Climbing Washington Center
Mon 08:21:23 AM 39.2456 -76.7278 230° Southwest 506 582 40,000 407 Climbing Washington Center
Mon 08:22:24 AM 39.1525 -76.8736 231° Southwest 516 594 40,000  Level Washington Center
Mon 08:23:24 AM 39.0592 -77.0164 230° Southwest 522 601 40,000  Level Washington Center
Mon 08:24:25 AM 38.9492 -77.1450 222° Southwest 527 606 40,000  Level Washington Center
Mon 08:25:26 AM 38.8478 -77.2522 219° Southwest 527 606 40,000  Level Washington Center
Mon 08:26:24 AM 38.7333 -77.3747 220° Southwest 533 613 40,000  Level Washington Center
Mon 08:27:24 AM 38.6211 -77.4969 220° Southwest 533 613 40,000  Level Washington Center
Mon 08:28:26 AM 38.5106 -77.6214 221° Southwest 533 613 40,000  Level Washington Center
Mon 08:29:24 AM 38.3958 -77.7456 220° Southwest 538 619 40,000  Level Washington Center
Mon 08:30:24 AM 38.2811 -77.8664 220° Southwest 538 619 40,000  Level Washington Center
Mon 08:31:25 AM 38.1681 -77.9897 221° Southwest 543 625 40,000  Level Washington Center
Mon 08:32:26 AM 38.0550 -78.1128 221° Southwest 543 625 40,000  Level Washington Center
Mon 08:33:26 AM 37.9314 -78.2378 219° Southwest 532 612 40,000  Level Washington Center
Mon 08:34:25 AM 37.8292 -78.3339 217° Southwest 532 612 40,000  Level Washington Center
Mon 08:35:25 AM 37.7097 -78.4478 217° Southwest 527 606 40,000  Level Washington Center
Mon 08:36:26 AM 37.5922 -78.5561 216° Southwest 527 606 40,000  Level Washington Center
Mon 08:37:25 AM 37.4725 -78.6692 217° Southwest 533 613 40,000  Level Washington Center
Mon 08:38:25 AM 37.3531 -78.7767 216° Southwest 533 613 40,000  Level Washington Center
Mon 08:39:25 AM 37.2331 -78.8892 217° Southwest 538 619 40,000  Level Washington Center
Mon 08:40:26 AM 37.1133 -78.9986 216° Southwest 538 619 40,000  Level Washington Center
Mon 08:41:24 AM 36.9931 -79.1103 217° Southwest 538 619 40,000  Level Washington Center
Mon 08:42:25 AM 36.8731 -79.2217 217° Southwest 538 619 40,000  Level Washington Center
Mon 08:43:25 AM 36.7550 -79.3303 216° Southwest 533 613 40,000  Level Washington Center
Mon 08:44:26 AM 36.6367 -79.4383 216° Southwest 533 613 40,000  Level Washington Center
Mon 08:46:39 AM 36.3667 -79.6814 216° Southwest 528 608 40,000  Level Atlanta Center
Mon 08:47:39 AM 36.2475 -79.7908 217° Southwest 528 608 40,000  Level Atlanta Center
Mon 08:48:39 AM 36.1261 -79.8975 215° Southwest 534 615 40,000  Level Atlanta Center
Mon 08:49:39 AM 36.0022 -79.9961 213° Southwest 534 615 40,000  Level Atlanta Center
Mon 08:50:39 AM 35.8667 -80.0644 202° Southwest 528 608 40,000  Level Atlanta Center
Mon 08:51:39 AM 35.7292 -80.1350 203° Southwest 534 615 40,000  Level Atlanta Center
Mon 08:52:39 AM 35.5792 -80.2111 202° Southwest 534 615 40,000  Level Atlanta Center
Mon 08:53:39 AM 35.4436 -80.2786 202° Southwest 529 609 40,000  Level Atlanta Center
Mon 08:54:39 AM 35.3100 -80.3433 202° Southwest 529 609 40,000  Level Atlanta Center
Mon 08:55:39 AM 35.1744 -80.4103 202° Southwest 529 609 40,000  Level Atlanta Center
Mon 08:56:39 AM 35.0408 -80.4794 203° Southwest 529 609 40,000  Level Atlanta Center
Mon 08:57:45 AM 34.8953 -80.5489 201° Southwest 526 605 40,000  Level Jacksonville Center
Mon 08:58:45 AM 34.7797 -80.6103 204° Southwest 518 596 40,000  Level Jacksonville Center
Mon 08:59:45 AM 34.6472 -80.6742 202° Southwest 512 589 40,000  Level Jacksonville Center
Mon 09:00:45 AM 34.5086 -80.7408 202° Southwest 518 596 40,000  Level Jacksonville Center
Mon 09:01:45 AM 34.3761 -80.8019 201° Southwest 523 602 40,000  Level Jacksonville Center
Mon 09:02:45 AM 34.2481 -80.8703 204° Southwest 511 588 40,000  Level Jacksonville Center
Mon 09:03:45 AM 34.1133 -80.9336 201° Southwest 511 588 40,000  Level Jacksonville Center
Mon 09:04:45 AM 33.9808 -80.9992 202° Southwest 511 588 40,000  Level Jacksonville Center
Mon 09:05:45 AM 33.8481 -81.0597 201° Southwest 511 588 40,000  Level Jacksonville Center
Mon 09:06:45 AM 33.7178 -81.1297 204° Southwest 511 588 40,000  Level Jacksonville Center
Mon 09:07:45 AM 33.5850 -81.1922 201° Southwest 511 588 40,000  Level Jacksonville Center
Mon 09:08:45 AM 33.4544 -81.2569 202° Southwest 511 588 40,000  Level Jacksonville Center
Mon 09:09:45 AM 33.3236 -81.3214 202° Southwest 511 588 40,000  Level Jacksonville Center
Mon 09:10:45 AM 33.1931 -81.3858 202° Southwest 516 594 40,000  Level Jacksonville Center
Mon 09:11:45 AM 33.0622 -81.4475 202° Southwest 516 594 40,000  Level Jacksonville Center
Mon 09:12:45 AM 32.9336 -81.5114 203° Southwest 516 594 40,000  Level Jacksonville Center
Mon 09:13:45 AM 32.8028 -81.5728 202° Southwest 516 594 40,000  Level Jacksonville Center
Mon 09:14:45 AM 32.6636 -81.6414 203° Southwest 497 572 40,000  Level Jacksonville Center
Mon 09:15:45 AM 32.5472 -81.6972 202° Southwest 503 579 40,000  Level Jacksonville Center
Mon 09:16:45 AM 32.4058 -81.7681 203° Southwest 498 573 40,000  Level Jacksonville Center
Mon 09:17:45 AM 32.2747 -81.8286 201° Southwest 503 579 40,000  Level Jacksonville Center
Mon 09:18:45 AM 32.1439 -81.8914 202° Southwest 509 586 40,000  Level Jacksonville Center
Mon 09:19:45 AM 32.0128 -81.9492 200° South 509 586 40,000  Level Jacksonville Center
Mon 09:20:45 AM 31.8878 -81.9775 191° South 502 578 40,000  Level Jacksonville Center
Mon 09:21:45 AM 31.7353 -81.9911 184° South 503 579 40,000  Level Jacksonville Center
Mon 09:22:45 AM 31.5956 -82.0047 185° South 508 585 40,000  Level Jacksonville Center
Mon 09:23:45 AM 31.4683 -82.0158 184° South 514 592 40,000  Level Jacksonville Center
Mon 09:24:45 AM 31.3264 -82.0292 185° South 514 592 40,000  Level Jacksonville Center
Mon 09:25:45 AM 31.1844 -82.0450 185° South 514 592 40,000  Level Jacksonville Center
Mon 09:26:45 AM 31.0425 -82.0583 185° South 519 597 40,000  Level Jacksonville Center
Mon 09:27:45 AM 30.9006 -82.0694 184° South 519 597 40,000  Level Jacksonville Center
Mon 09:28:45 AM 30.7608 -82.0803 184° South 513 590 40,000  Level Jacksonville Center
Mon 09:29:45 AM 30.6253 -82.0958 186° South 513 590 40,000  Level Jacksonville Center
Mon 09:30:45 AM 30.4708 -82.1044 183° South 506 582 40,000  Level Jacksonville Center
Mon 09:31:45 AM 30.3289 -82.1153 184° South 511 588 40,000  Level Jacksonville Center
Mon 09:32:45 AM 30.1892 -82.1261 184° South 511 588 40,000  Level Jacksonville Center
Mon 09:33:45 AM 30.0447 -82.1031 172° South 515 593 40,000  Level Jacksonville Center
Mon 09:34:45 AM 29.9194 -82.0825 172° South 515 593 40,000  Level Jacksonville Center
Mon 09:35:45 AM 29.7647 -82.0503 170° South 515 593 40,000 -450 Level Jacksonville Center
Mon 09:36:45 AM 29.6247 -82.0231 170° South 515 593 39,100 -1,850 Descending Jacksonville Center
Mon 09:37:45 AM 29.4847 -81.9956 170° South 515 593 36,300 -2,050 Descending Jacksonville Center
Mon 09:38:45 AM 29.3425 -81.9683 171° South 515 593 35,000 -650 Descending Jacksonville Center
Mon 09:39:45 AM 29.2003 -81.9339 168° South 520 598 35,000 -902 Level Jacksonville Center
Mon 09:41:38 AM 28.9378 -81.8847 171° South 528 608 32,400 -1,655 Descending Miami Center
Mon 09:42:39 AM 28.8011 -81.8586 170° South 522 601 30,200 -2,000 Descending Miami Center
Mon 09:43:41 AM 28.6644 -81.8311 170° South 502 578 28,300 -1,548 Descending Miami Center
Mon 09:44:43 AM 28.5233 -81.7989 169° South 515 593 27,000 -629 Descending Miami Center
Mon 09:45:45 AM 28.3606 -81.7531 166° South 501 577 27,000  Level Miami Center
Mon 09:46:46 AM 28.2261 -81.7147 166° South 500 575 27,000 -195 Level Miami Center
Mon 09:47:48 AM 28.0919 -81.6772 166° South 499 574 26,600 -774 Descending Miami Center
Mon 09:48:50 AM 27.9553 -81.6942 186° South 499 574 25,400 -1,113 Descending Miami Center
Mon 09:49:52 AM 27.8031 -81.7378 194° South 498 573 24,300 -1,073 Descending Miami Center
Mon 09:50:53 AM 27.6656 -81.7647 190° South 485 558 23,200 -976 Descending Miami Center
Mon 09:51:55 AM 27.5406 -81.7400 170° South 479 551 22,300 -1,694 Descending Miami Center
Mon 09:52:57 AM 27.4142 -81.6806 157° South 475 547 19,700 -2,468 Descending Miami Center
Mon 09:53:59 AM 27.3108 -81.6294 156° South 460 529 17,200 -2,806 Descending Miami Center
Mon 09:55:01 AM 27.1792 -81.5656 157° South 429 494 13,900 -2,878 Descending Miami Center
Mon 09:56:02 AM 27.0767 -81.5150 156° South 405 466 11,300 -1,902 Descending Miami Center
Mon 09:57:04 AM 26.9753 -81.4647 156° South 400 460 10,000 -629 Descending Miami Center
Mon 09:58:06 AM 26.8644 -81.4094 156° South 402 463 10,000  Level Miami Center
Mon 09:59:08 AM 26.7742 -81.3756 161° South 324 373 10,000 -919 Level Miami Center
Mon 10:00:10 AM 26.6917 -81.3947 192° South 280 322 8,100 -1,805 Descending Miami Center
Mon 10:01:11 AM 26.6153 -81.3997 183° South 278 320 6,300 -1,805 Descending Miami Center
Mon 10:02:13 AM 26.5411 -81.4269 198° South 266 306 4,400 -1,597 Descending Miami Center
Mon 10:03:15 AM 26.4850 -81.4764 218° Southwest 262 302 3,000 -677 Descending Miami Center
Mon 10:04:17 AM 26.4275 -81.5261 218° Southwest 244 281 3,000  Level Miami Center
Mon 10:05:19 AM 26.3717 -81.5747 218° Southwest 253 291 3,000  Level Miami Center
Mon 10:06:20 AM 26.3192 -81.6200 218° Southwest 240 276 3,000 -488 Level Miami Center
Mon 10:07:22 AM 26.2625 -81.6692 218° Southwest 240 276 2,000 -726 Descending Miami Center
Mon 10:08:24 AM 26.2181 -81.7072 218° Southwest 206 237 1,500 -532 Descending Miami Center
Mon 10:09:26 AM 26.1872 -81.7392 223° Southwest 144 166 900 -629 Descending Miami Center
Mon 10:10:28 AM 26.1650 -81.7625 223° Southwest 136 157 200 -677 Descending Miami Center
Mon 10:12:00 AM 26.1500 -81.7667 246° West  Level FlightAware Approximate

Login

Don't have an account? Register now (free) for customized features, flight alerts, and more!